Time;durP1;ratioP1;P1;durP2;ratioP2;P2;SDS_P1;SDS_P2;PMS_P1;PMS_P2;Temp;Humidity;BMP_temperature;BMP_pressure;BME280_temperature;BME280_humidity;BME280_pressure;Samples;Min_cycle;Max_cycle;Signal;HPM_P1;HPM_P2
2022/07/17 00:02:12;;;;;;;22.23;20.93;;;;;;;;;;5095897;28;20409;-69
2022/07/17 00:04:39;;;;;;;21.10;19.90;;;;;;;;;;5095860;28;20437;-69
2022/07/17 00:07:08;;;;;;;21.07;19.70;;;;;;;;;;5095917;28;20449;-69
2022/07/17 00:09:35;;;;;;;21.63;20.27;;;;;;;;;;5095540;28;20970;-69
2022/07/17 00:12:03;;;;;;;20.97;19.77;;;;;;;;;;5095980;28;20445;-69
2022/07/17 00:14:30;;;;;;;21.00;19.60;;;;;;;;;;5095784;28;20413;-69
2022/07/17 00:16:57;;;;;;;21.50;20.10;;;;;;;;;;5095910;28;20402;-69
2022/07/17 00:19:25;;;;;;;22.17;20.63;;;;;;;;;;5094984;28;20785;-69
2022/07/17 00:21:52;;;;;;;21.57;20.17;;;;;;;;;;5095587;28;20469;-69
2022/07/17 00:24:21;;;;;;;20.87;19.57;;;;;;;;;;5095605;28;20439;-70
2022/07/17 00:26:49;;;;;;;21.90;20.60;;;;;;;;;;5095394;28;20445;-69
2022/07/17 00:29:16;;;;;;;21.90;20.20;;;;;;;;;;5095243;28;20499;-69
2022/07/17 00:31:43;;;;;;;22.27;20.60;;;;;;;;;;5095229;28;20415;-69
2022/07/17 00:34:11;;;;;;;22.70;21.30;;;;;;;;;;5095456;28;20413;-68
2022/07/17 00:36:39;;;;;;;22.43;20.97;;;;;;;;;;5095398;28;20412;-69
2022/07/17 00:39:06;;;;;;;22.20;20.80;;;;;;;;;;5095034;28;20477;-69
2022/07/17 00:41:35;;;;;;;22.77;21.10;;;;;;;;;;5095316;28;20408;-69
2022/07/17 00:44:05;;;;;;;21.60;20.40;;;;;;;;;;5095358;28;20425;-69
2022/07/17 00:46:33;;;;;;;21.70;20.37;;;;;;;;;;5095074;27;20568;-69
2022/07/17 00:49:00;;;;;;;22.60;21.07;;;;;;;;;;5094516;28;20483;-68
2022/07/17 00:51:28;;;;;;;22.77;21.17;;;;;;;;;;5094539;28;20842;-69
2022/07/17 00:53:56;;;;;;;22.80;21.40;;;;;;;;;;5094823;28;20405;-69
2022/07/17 00:56:24;;;;;;;22.30;20.90;;;;;;;;;;5094988;28;20397;-69
2022/07/17 00:58:53;;;;;;;20.60;19.60;;;;;;;;;;5094915;28;20412;-69
2022/07/17 01:01:21;;;;;;;21.70;20.40;;;;;;;;;;5094758;28;20790;-69
2022/07/17 01:03:48;;;;;;;22.77;21.37;;;;;;;;;;5095050;28;20839;-69
2022/07/17 01:06:16;;;;;;;23.70;21.87;;;;;;;;;;5094660;28;20440;-69
2022/07/17 01:08:43;;;;;;;22.77;21.07;;;;;;;;;;5094223;28;20468;-69
2022/07/17 01:11:11;;;;;;;22.07;20.87;;;;;;;;;;5094514;28;20412;-69
2022/07/17 01:13:38;;;;;;;23.57;21.57;;;;;;;;;;5094281;28;20439;-69
2022/07/17 01:16:08;;;;;;;22.00;20.60;;;;;;;;;;5094574;28;20433;-68
2022/07/17 01:18:35;;;;;;;21.93;20.67;;;;;;;;;;5094039;28;20726;-69
2022/07/17 01:21:07;;;;;;;22.43;20.97;;;;;;;;;;5094159;28;20436;-70
2022/07/17 01:23:35;;;;;;;21.93;20.53;;;;;;;;;;5094513;28;20458;-70
2022/07/17 01:26:02;;;;;;;21.63;20.43;;;;;;;;;;5094395;28;20443;-69
2022/07/17 01:28:30;;;;;;;21.97;20.67;;;;;;;;;;5093902;28;20958;-70
2022/07/17 01:30:58;;;;;;;21.23;20.03;;;;;;;;;;5092953;28;20916;-70
2022/07/17 01:33:25;;;;;;;21.90;20.80;;;;;;;;;;5093973;28;20487;-69
2022/07/17 01:35:52;;;;;;;22.50;20.93;;;;;;;;;;5094259;28;20429;-69
2022/07/17 01:38:21;;;;;;;21.67;20.33;;;;;;;;;;5094153;28;20522;-69
2022/07/17 01:40:48;;;;;;;21.23;19.93;;;;;;;;;;5093787;28;21205;-70
2022/07/17 01:43:16;;;;;;;21.60;20.37;;;;;;;;;;5094065;28;20408;-69
2022/07/17 01:45:43;;;;;;;22.20;20.90;;;;;;;;;;5093669;28;20446;-69
2022/07/17 01:48:10;;;;;;;22.00;20.70;;;;;;;;;;5093719;28;20403;-69
2022/07/17 01:50:38;;;;;;;23.17;21.47;;;;;;;;;;5093806;28;20401;-71
2022/07/17 01:53:05;;;;;;;21.70;20.40;;;;;;;;;;5093541;28;20438;-69
2022/07/17 01:55:34;;;;;;;22.17;20.87;;;;;;;;;;5093470;28;20432;-69
2022/07/17 01:58:01;;;;;;;22.97;21.13;;;;;;;;;;5093483;28;20404;-70
2022/07/17 02:00:29;;;;;;;22.03;20.83;;;;;;;;;;5093389;28;20407;-69
2022/07/17 02:02:56;;;;;;;21.77;20.57;;;;;;;;;;5093648;28;20411;-69
2022/07/17 02:05:24;;;;;;;22.70;21.50;;;;;;;;;;5093400;28;20963;-70
2022/07/17 02:07:51;;;;;;;22.00;20.60;;;;;;;;;;5093263;28;20423;-70
2022/07/17 02:10:19;;;;;;;21.83;20.63;;;;;;;;;;5093421;28;20460;-70
2022/07/17 02:12:47;;;;;;;22.13;20.73;;;;;;;;;;5093241;28;20414;-70
2022/07/17 02:15:15;;;;;;;21.83;20.43;;;;;;;;;;5093440;28;20405;-70
2022/07/17 02:17:43;;;;;;;22.43;21.03;;;;;;;;;;5093230;28;20430;-69
2022/07/17 02:20:10;;;;;;;22.17;20.83;;;;;;;;;;5093449;28;20465;-69
2022/07/17 02:22:38;;;;;;;21.37;20.17;;;;;;;;;;5093370;28;20407;-70
2022/07/17 02:25:06;;;;;;;22.20;20.80;;;;;;;;;;5093270;28;20418;-70
2022/07/17 02:27:33;;;;;;;21.97;20.73;;;;;;;;;;5093020;28;20794;-70
2022/07/17 02:30:04;;;;;;;21.83;20.50;;;;;;;;;;5092997;28;20966;-70
2022/07/17 02:32:31;;;;;;;21.30;20.20;;;;;;;;;;5093017;28;20404;-70
2022/07/17 02:34:59;;;;;;;22.37;20.67;;;;;;;;;;5092972;28;20413;-69
2022/07/17 02:37:26;;;;;;;21.83;20.63;;;;;;;;;;5092940;28;20742;-70
2022/07/17 02:39:53;;;;;;;22.03;20.73;;;;;;;;;;5092897;28;20444;-69
2022/07/17 02:42:21;;;;;;;22.70;21.30;;;;;;;;;;5092703;28;20411;-70
2022/07/17 02:44:49;;;;;;;21.47;20.17;;;;;;;;;;5092709;28;20463;-69
2022/07/17 02:47:22;;;;;;;21.70;20.40;;;;;;;;;;5093073;28;20407;-69
2022/07/17 02:49:49;;;;;;;22.67;21.27;;;;;;;;;;5092511;28;20491;-70
2022/07/17 02:52:17;;;;;;;22.47;21.10;;;;;;;;;;5092509;28;20436;-69
2022/07/17 02:54:44;;;;;;;22.33;20.93;;;;;;;;;;5093041;28;20456;-70
2022/07/17 02:57:12;;;;;;;21.67;20.33;;;;;;;;;;5092730;28;20410;-70
2022/07/17 02:59:39;;;;;;;21.83;20.27;;;;;;;;;;5093050;28;20445;-69
2022/07/17 03:02:07;;;;;;;22.20;20.70;;;;;;;;;;5092533;28;20900;-70
2022/07/17 03:04:36;;;;;;;22.27;20.90;;;;;;;;;;5092911;28;20440;-69
2022/07/17 03:07:03;;;;;;;23.10;21.50;;;;;;;;;;5092835;28;20546;-70
2022/07/17 03:09:30;;;;;;;22.23;20.97;;;;;;;;;;5092720;28;20841;-70
2022/07/17 03:11:58;;;;;;;21.60;20.20;;;;;;;;;;5092935;28;20437;-69
2022/07/17 03:14:25;;;;;;;22.13;20.87;;;;;;;;;;5092939;28;20404;-69
2022/07/17 03:16:53;;;;;;;21.80;20.50;;;;;;;;;;5093108;28;20412;-71
2022/07/17 03:19:20;;;;;;;22.13;20.83;;;;;;;;;;5092638;28;20403;-70
2022/07/17 03:21:49;;;;;;;21.97;20.67;;;;;;;;;;5092334;28;20415;-70
2022/07/17 03:24:16;;;;;;;21.80;20.50;;;;;;;;;;5092725;28;20431;-69
2022/07/17 03:26:43;;;;;;;21.63;20.30;;;;;;;;;;5092747;28;20408;-70
2022/07/17 03:29:11;;;;;;;22.07;20.87;;;;;;;;;;5092313;28;20455;-70
2022/07/17 03:31:38;;;;;;;22.63;21.30;;;;;;;;;;5092531;28;20450;-70
2022/07/17 03:34:05;;;;;;;22.63;21.30;;;;;;;;;;5092315;28;20461;-69
2022/07/17 03:36:32;;;;;;;22.37;21.07;;;;;;;;;;5092528;28;20427;-70
2022/07/17 03:39:01;;;;;;;22.50;21.30;;;;;;;;;;5092240;28;20468;-69
2022/07/17 03:41:29;;;;;;;22.47;21.27;;;;;;;;;;5092632;28;20403;-69
2022/07/17 03:43:56;;;;;;;22.80;21.43;;;;;;;;;;5092526;28;20514;-69
2022/07/17 03:46:23;;;;;;;22.97;21.40;;;;;;;;;;5092558;28;20419;-69
2022/07/17 03:48:51;;;;;;;23.50;21.93;;;;;;;;;;5091996;28;20432;-68
2022/07/17 03:51:18;;;;;;;22.80;21.13;;;;;;;;;;5092050;28;20472;-69
2022/07/17 03:53:46;;;;;;;22.90;21.60;;;;;;;;;;5092594;28;20407;-69
2022/07/17 03:56:15;;;;;;;22.93;21.43;;;;;;;;;;5096253;28;20437;-69
2022/07/17 03:58:42;;;;;;;21.30;20.20;;;;;;;;;;5095739;28;20437;-69
2022/07/17 04:01:10;;;;;;;23.53;21.93;;;;;;;;;;5095771;28;20924;-69
2022/07/17 04:03:37;;;;;;;22.00;20.70;;;;;;;;;;5096121;28;20514;-69
2022/07/17 04:06:05;;;;;;;22.47;21.17;;;;;;;;;;5096154;28;20416;-69
2022/07/17 04:08:32;;;;;;;22.07;20.90;;;;;;;;;;5095943;28;20433;-69
2022/07/17 04:10:59;;;;;;;22.37;21.03;;;;;;;;;;5095505;28;20476;-69
2022/07/17 04:13:28;;;;;;;22.30;20.70;;;;;;;;;;5095819;28;20440;-69
2022/07/17 04:15:56;;;;;;;23.30;21.67;;;;;;;;;;5095883;28;20433;-69
2022/07/17 04:18:25;;;;;;;22.67;21.37;;;;;;;;;;5095543;28;20440;-69
2022/07/17 04:20:53;;;;;;;22.80;21.50;;;;;;;;;;5095724;28;20449;-69
2022/07/17 04:23:20;;;;;;;22.73;21.30;;;;;;;;;;5095554;28;20414;-69
2022/07/17 04:25:48;;;;;;;22.30;20.90;;;;;;;;;;5095586;28;20415;-69
2022/07/17 04:28:15;;;;;;;21.73;20.43;;;;;;;;;;5095716;28;20408;-69
2022/07/17 04:30:44;;;;;;;21.60;20.40;;;;;;;;;;5095223;28;20463;-70
2022/07/17 04:33:12;;;;;;;21.80;20.33;;;;;;;;;;5095255;28;20408;-69
2022/07/17 04:35:39;;;;;;;21.70;20.40;;;;;;;;;;5095070;28;20983;-69
2022/07/17 04:38:07;;;;;;;21.50;20.00;;;;;;;;;;5095298;28;20404;-69
2022/07/17 04:40:35;;;;;;;21.40;20.20;;;;;;;;;;5094916;28;20829;-68
2022/07/17 04:43:03;;;;;;;21.57;20.37;;;;;;;;;;5095315;28;20440;-69
2022/07/17 04:45:31;;;;;;;21.20;19.80;;;;;;;;;;5094818;28;20463;-69
2022/07/17 04:48:00;;;;;;;20.70;19.40;;;;;;;;;;5095191;28;20434;-69
2022/07/17 04:50:27;;;;;;;21.47;20.10;;;;;;;;;;5094739;28;20500;-69
2022/07/17 04:52:54;;;;;;;21.97;20.73;;;;;;;;;;5095055;28;20430;-69
2022/07/17 04:55:22;;;;;;;20.80;19.70;;;;;;;;;;5095006;28;20411;-69
2022/07/17 04:57:49;;;;;;;22.67;21.27;;;;;;;;;;5094906;28;20417;-69
2022/07/17 05:00:17;;;;;;;21.13;19.63;;;;;;;;;;5094913;28;20411;-69
2022/07/17 05:02:44;;;;;;;22.87;21.43;;;;;;;;;;5094622;28;20441;-69
2022/07/17 05:05:13;;;;;;;22.70;21.50;;;;;;;;;;5094547;28;20412;-68
2022/07/17 05:07:40;;;;;;;21.27;19.97;;;;;;;;;;5094727;28;20727;-69
2022/07/17 05:10:08;;;;;;;22.20;20.90;;;;;;;;;;5094206;28;20451;-69
2022/07/17 05:12:36;;;;;;;22.00;20.80;;;;;;;;;;5094495;28;20411;-69
2022/07/17 05:15:03;;;;;;;22.80;21.50;;;;;;;;;;5094531;28;20444;-69
2022/07/17 05:17:30;;;;;;;22.73;21.43;;;;;;;;;;5094183;28;20404;-69
2022/07/17 05:19:58;;;;;;;22.50;21.00;;;;;;;;;;5094225;28;20907;-69
2022/07/17 05:22:26;;;;;;;23.83;22.23;;;;;;;;;;5094479;28;20428;-69
2022/07/17 05:24:53;;;;;;;22.40;20.90;;;;;;;;;;5094945;28;20447;-70
2022/07/17 05:27:21;;;;;;;21.40;20.17;;;;;;;;;;5094656;28;20444;-69
2022/07/17 05:29:49;;;;;;;21.87;20.07;;;;;;;;;;5094695;28;20969;-69
2022/07/17 05:32:16;;;;;;;20.93;19.53;;;;;;;;;;5094489;28;20599;-69
2022/07/17 05:34:43;;;;;;;21.73;20.33;;;;;;;;;;5094195;28;20437;-69
2022/07/17 05:37:11;;;;;;;20.73;19.53;;;;;;;;;;5094262;28;20412;-69
2022/07/17 05:39:39;;;;;;;21.13;19.70;;;;;;;;;;5094082;28;20478;-69
2022/07/17 05:42:07;;;;;;;21.47;19.90;;;;;;;;;;5093941;28;20448;-69
2022/07/17 05:44:34;;;;;;;20.80;19.30;;;;;;;;;;5094495;28;20444;-71
2022/07/17 05:47:02;;;;;;;20.77;19.57;;;;;;;;;;5094014;28;20439;-69
2022/07/17 05:49:29;;;;;;;20.60;19.30;;;;;;;;;;5093976;28;20416;-72
2022/07/17 05:51:57;;;;;;;19.93;18.63;;;;;;;;;;5093911;28;20456;-69
2022/07/17 05:54:24;;;;;;;20.80;19.20;;;;;;;;;;5093748;28;21009;-69
2022/07/17 05:56:53;;;;;;;20.03;18.93;;;;;;;;;;5094194;28;20417;-71
2022/07/17 05:59:21;;;;;;;19.50;18.50;;;;;;;;;;5093632;28;20420;-74
2022/07/17 06:01:48;;;;;;;20.50;19.40;;;;;;;;;;5093760;28;20505;-69
2022/07/17 06:04:15;;;;;;;20.23;18.83;;;;;;;;;;5093841;28;20416;-70
2022/07/17 06:06:43;;;;;;;20.90;19.70;;;;;;;;;;5088629;28;20441;-72
2022/07/17 06:09:10;;;;;;;20.40;19.30;;;;;;;;;;5082442;28;20455;-72
2022/07/17 06:11:37;;;;;;;19.80;18.80;;;;;;;;;;5073359;28;20501;-69
2022/07/17 06:14:07;;;;;;;20.30;19.20;;;;;;;;;;5073433;28;20452;-71
2022/07/17 06:16:35;;;;;;;20.37;19.27;;;;;;;;;;5072913;28;20809;-73
2022/07/17 06:19:02;;;;;;;20.53;19.20;;;;;;;;;;5073422;28;20412;-73
2022/07/17 06:21:29;;;;;;;21.00;19.60;;;;;;;;;;5073184;28;20410;-71
2022/07/17 06:23:56;;;;;;;20.63;19.37;;;;;;;;;;5073404;28;20410;-69
2022/07/17 06:26:24;;;;;;;21.10;19.90;;;;;;;;;;5072980;28;20413;-70
2022/07/17 06:28:51;;;;;;;21.67;19.63;;;;;;;;;;5073186;28;20530;-71
2022/07/17 06:31:21;;;;;;;21.50;20.00;;;;;;;;;;5073011;28;20487;-71
2022/07/17 06:33:48;;;;;;;21.53;20.13;;;;;;;;;;5072866;28;20410;-72
2022/07/17 06:36:16;;;;;;;20.57;19.47;;;;;;;;;;5074183;28;20411;-70
2022/07/17 06:38:43;;;;;;;21.17;19.67;;;;;;;;;;5092638;28;20406;-73
2022/07/17 06:41:10;;;;;;;20.87;19.57;;;;;;;;;;5093089;28;20821;-75
2022/07/17 06:43:38;;;;;;;21.13;19.90;;;;;;;;;;5091982;28;20410;-74
2022/07/17 06:46:05;;;;;;;20.57;19.10;;;;;;;;;;5093051;28;20460;-73
2022/07/17 06:48:34;;;;;;;21.27;20.03;;;;;;;;;;5093350;28;20430;-74
2022/07/17 06:51:02;;;;;;;20.80;19.30;;;;;;;;;;5093851;28;20498;-72
2022/07/17 06:53:30;;;;;;;21.80;20.50;;;;;;;;;;5093070;28;20768;-73
2022/07/17 06:55:57;;;;;;;22.30;20.63;;;;;;;;;;5093080;28;20501;-75
2022/07/17 06:58:25;;;;;;;21.70;20.40;;;;;;;;;;5093111;28;20411;-73
2022/07/17 07:00:52;;;;;;;21.40;20.20;;;;;;;;;;5092810;28;20431;-74
2022/07/17 07:03:19;;;;;;;21.90;20.40;;;;;;;;;;5093164;28;20468;-73
2022/07/17 07:05:48;;;;;;;21.00;19.70;;;;;;;;;;5092872;28;20410;-73
2022/07/17 07:08:16;;;;;;;21.47;20.17;;;;;;;;;;5092536;28;20430;-73
2022/07/17 07:10:44;;;;;;;21.43;20.13;;;;;;;;;;5092758;28;20458;-73
2022/07/17 07:13:12;;;;;;;22.33;20.93;;;;;;;;;;5093287;28;20429;-73
2022/07/17 07:15:39;;;;;;;21.97;20.67;;;;;;;;;;5093028;28;20421;-74
2022/07/17 07:18:07;;;;;;;22.33;20.93;;;;;;;;;;5093129;28;20429;-73
2022/07/17 07:20:36;;;;;;;22.47;20.97;;;;;;;;;;5093500;28;20812;-73
2022/07/17 07:23:04;;;;;;;21.53;20.23;;;;;;;;;;5093454;28;20434;-73
2022/07/17 07:25:32;;;;;;;21.80;20.40;;;;;;;;;;5092854;28;20416;-73
2022/07/17 07:27:59;;;;;;;22.00;20.37;;;;;;;;;;5092557;28;20423;-74
2022/07/17 07:30:26;;;;;;;22.33;21.03;;;;;;;;;;5095587;28;20971;-72
2022/07/17 07:32:54;;;;;;;22.07;20.67;;;;;;;;;;5096313;28;20438;-74
2022/07/17 07:35:21;;;;;;;22.57;20.93;;;;;;;;;;5096194;28;20437;-74
2022/07/17 07:37:48;;;;;;;22.00;20.53;;;;;;;;;;5096523;28;20450;-69
2022/07/17 07:40:17;;;;;;;21.53;20.33;;;;;;;;;;5095898;28;20484;-67
2022/07/17 07:42:44;;;;;;;22.77;21.27;;;;;;;;;;5096405;28;20428;-68
2022/07/17 07:45:12;;;;;;;22.10;20.80;;;;;;;;;;5096581;28;20431;-68
2022/07/17 07:47:43;;;;;;;22.73;21.33;;;;;;;;;;5096004;28;20452;-67
2022/07/17 07:50:11;;;;;;;21.90;20.40;;;;;;;;;;5096117;28;20459;-68
2022/07/17 07:52:39;;;;;;;23.07;21.23;;;;;;;;;;5095882;28;20477;-68
2022/07/17 07:55:07;;;;;;;21.50;20.07;;;;;;;;;;5095872;28;20402;-72
2022/07/17 07:57:36;;;;;;;22.30;20.77;;;;;;;;;;5096061;28;20409;-72
2022/07/17 08:00:04;;;;;;;21.93;20.53;;;;;;;;;;5095725;28;20409;-69
2022/07/17 08:02:32;;;;;;;23.50;21.60;;;;;;;;;;5095538;28;20429;-68
2022/07/17 08:04:59;;;;;;;22.13;20.70;;;;;;;;;;5095645;28;20977;-69
2022/07/17 08:07:27;;;;;;;21.63;20.43;;;;;;;;;;5095505;28;20843;-69
2022/07/17 08:09:54;;;;;;;21.70;20.40;;;;;;;;;;5095791;28;20471;-69
2022/07/17 08:12:22;;;;;;;21.70;20.20;;;;;;;;;;5095274;28;20430;-68
2022/07/17 08:14:50;;;;;;;21.80;20.40;;;;;;;;;;5095697;28;20927;-69
2022/07/17 08:17:19;;;;;;;22.17;20.90;;;;;;;;;;5095328;28;20937;-68
2022/07/17 08:19:46;;;;;;;22.73;21.10;;;;;;;;;;5095025;28;20459;-68
2022/07/17 08:22:13;;;;;;;22.47;21.17;;;;;;;;;;5095576;28;20424;-68
2022/07/17 08:24:41;;;;;;;22.50;21.07;;;;;;;;;;5095410;28;20439;-68
2022/07/17 08:27:08;;;;;;;22.50;21.00;;;;;;;;;;5095038;28;20417;-68
2022/07/17 08:29:35;;;;;;;22.50;21.00;;;;;;;;;;5083691;28;20436;-69
2022/07/17 08:32:04;;;;;;;21.93;20.53;;;;;;;;;;5074671;28;20450;-68
2022/07/17 08:34:31;;;;;;;21.30;20.07;;;;;;;;;;5074764;28;20410;-68
2022/07/17 08:36:59;;;;;;;22.10;20.70;;;;;;;;;;5082552;28;20430;-69
2022/07/17 08:39:26;;;;;;;22.53;20.70;;;;;;;;;;5087037;28;20486;-69
2022/07/17 08:41:54;;;;;;;21.70;20.20;;;;;;;;;;5074949;28;20488;-68
2022/07/17 08:44:21;;;;;;;21.60;20.30;;;;;;;;;;5074936;28;20402;-69
2022/07/17 08:46:49;;;;;;;21.40;20.00;;;;;;;;;;5074492;28;20398;-69
2022/07/17 08:49:21;;;;;;;21.00;19.70;;;;;;;;;;5080718;28;20435;-71
2022/07/17 08:51:49;;;;;;;21.33;20.03;;;;;;;;;;5094618;28;20503;-70
2022/07/17 08:54:17;;;;;;;22.73;20.83;;;;;;;;;;5095183;28;20463;-71
2022/07/17 08:56:44;;;;;;;22.23;20.83;;;;;;;;;;5094701;28;20504;-71
2022/07/17 08:59:11;;;;;;;22.50;21.00;;;;;;;;;;5095047;28;20467;-76
2022/07/17 09:01:40;;;;;;;22.80;21.30;;;;;;;;;;5093507;28;20430;-72
2022/07/17 09:04:09;;;;;;;23.87;22.13;;;;;;;;;;5094619;28;20424;-71
2022/07/17 09:06:38;;;;;;;22.50;21.17;;;;;;;;;;5094817;28;20447;-71
2022/07/17 09:09:07;;;;;;;22.47;20.77;;;;;;;;;;5094433;28;20905;-71
2022/07/17 09:11:47;;;;;;;21.70;20.50;;;;;;;;;;5094598;28;20451;-72
2022/07/17 09:14:14;;;;;;;22.93;21.33;;;;;;;;;;5094630;28;20450;-72
2022/07/17 09:16:52;;;;;;;22.53;21.07;;;;;;;;;;5094573;28;20437;-72
2022/07/17 09:19:26;;;;;;;21.80;20.53;;;;;;;;;;5094162;28;20442;-72
2022/07/17 09:22:04;;;;;;;22.60;21.40;;;;;;;;;;5094577;28;20469;-72
2022/07/17 09:24:39;;;;;;;22.23;20.77;;;;;;;;;;5094570;28;20434;-75
2022/07/17 09:27:07;;;;;;;22.90;20.90;;;;;;;;;;5094725;28;20465;-76
2022/07/17 09:29:34;;;;;;;22.90;21.30;;;;;;;;;;5094099;28;20949;-71
2022/07/17 09:32:02;;;;;;;22.23;20.93;;;;;;;;;;5094419;28;20479;-71
2022/07/17 09:34:29;;;;;;;23.07;21.77;;;;;;;;;;5094355;28;20448;-72
2022/07/17 09:37:01;;;;;;;23.10;21.80;;;;;;;;;;5094250;28;20455;-71
2022/07/17 09:39:36;;;;;;;23.40;21.80;;;;;;;;;;5094175;28;20461;-72
2022/07/17 09:42:03;;;;;;;22.10;20.80;;;;;;;;;;5093853;28;20421;-71
2022/07/17 09:44:30;;;;;;;22.13;20.73;;;;;;;;;;5093913;28;20414;-71
2022/07/17 09:46:59;;;;;;;23.40;22.10;;;;;;;;;;5093871;28;20418;-71
2022/07/17 09:49:27;;;;;;;22.17;20.87;;;;;;;;;;5093037;28;20481;-71
2022/07/17 09:51:55;;;;;;;22.90;21.30;;;;;;;;;;5092995;28;20499;-71
2022/07/17 09:54:24;;;;;;;21.97;20.57;;;;;;;;;;5092635;28;20418;-71
2022/07/17 09:56:52;;;;;;;22.90;21.33;;;;;;;;;;5093780;28;20451;-71
2022/07/17 09:59:20;;;;;;;24.27;22.60;;;;;;;;;;5093501;28;20433;-71
2022/07/17 10:01:49;;;;;;;23.17;21.67;;;;;;;;;;5093592;28;20410;-71
2022/07/17 10:04:17;;;;;;;23.53;22.13;;;;;;;;;;5093445;28;20411;-69
2022/07/17 10:06:44;;;;;;;22.93;21.63;;;;;;;;;;5093394;28;20480;-70
2022/07/17 10:09:13;;;;;;;25.07;23.40;;;;;;;;;;5093118;28;20428;-69
2022/07/17 10:11:42;;;;;;;23.87;22.57;;;;;;;;;;5093558;28;20452;-68
2022/07/17 10:14:11;;;;;;;23.63;22.03;;;;;;;;;;5093602;28;20443;-69
2022/07/17 10:16:39;;;;;;;23.60;22.20;;;;;;;;;;5093587;28;20422;-69
2022/07/17 10:19:16;;;;;;;25.00;23.60;;;;;;;;;;5093226;28;20435;-68
2022/07/17 10:21:53;;;;;;;23.70;22.40;;;;;;;;;;5093498;28;20444;-69
2022/07/17 10:24:21;;;;;;;24.03;22.73;;;;;;;;;;5093394;28;20449;-68
2022/07/17 10:26:50;;;;;;;22.47;20.87;;;;;;;;;;5093320;28;20753;-68
2022/07/17 10:29:30;;;;;;;22.83;21.40;;;;;;;;;;5093023;28;20525;-69
2022/07/17 10:31:58;;;;;;;22.10;20.40;;;;;;;;;;5092861;28;20817;-69
2022/07/17 10:34:39;;;;;;;22.77;21.37;;;;;;;;;;5092958;28;20450;-68
2022/07/17 10:37:16;;;;;;;22.67;21.37;;;;;;;;;;5092981;28;20497;-68
2022/07/17 10:39:53;;;;;;;22.63;21.43;;;;;;;;;;5092799;28;20484;-68
2022/07/17 10:42:35;;;;;;;22.83;21.53;;;;;;;;;;5093232;28;20878;-68
2022/07/17 10:45:09;;;;;;;23.87;22.37;;;;;;;;;;5092590;28;20502;-68
2022/07/17 10:47:46;;;;;;;23.20;21.80;;;;;;;;;;5091421;28;20458;-68
2022/07/17 10:50:14;;;;;;;23.20;21.90;;;;;;;;;;5092686;28;20445;-68
2022/07/17 10:52:42;;;;;;;23.83;22.00;;;;;;;;;;5093176;28;20463;-68
2022/07/17 10:55:19;;;;;;;23.73;22.43;;;;;;;;;;5092686;28;20988;-68
2022/07/17 10:57:48;;;;;;;23.70;22.20;;;;;;;;;;5092846;28;20468;-68
2022/07/17 11:00:17;;;;;;;23.93;22.43;;;;;;;;;;5092604;28;20440;-67
2022/07/17 11:02:45;;;;;;;22.97;21.47;;;;;;;;;;5093217;28;20415;-67
2022/07/17 11:05:13;;;;;;;23.50;21.87;;;;;;;;;;5096779;28;20419;-68
2022/07/17 11:07:51;;;;;;;22.97;21.27;;;;;;;;;;5097007;28;20443;-68
2022/07/17 11:10:18;;;;;;;22.83;21.47;;;;;;;;;;5096669;28;20406;-69
2022/07/17 11:12:46;;;;;;;22.73;21.43;;;;;;;;;;5096630;28;20447;-68
2022/07/17 11:15:13;;;;;;;22.30;21.00;;;;;;;;;;5096818;28;20477;-68
2022/07/17 11:17:46;;;;;;;22.27;21.00;;;;;;;;;;5096534;28;20748;-68
2022/07/17 11:20:15;;;;;;;22.53;21.13;;;;;;;;;;5096630;28;20446;-69
2022/07/17 11:22:42;;;;;;;22.90;21.40;;;;;;;;;;5096482;28;20410;-68
2022/07/17 11:25:11;;;;;;;23.40;22.10;;;;;;;;;;5096832;28;20522;-68
2022/07/17 11:27:39;;;;;;;23.93;22.43;;;;;;;;;;5096611;28;20451;-68
2022/07/17 11:30:07;;;;;;;23.47;22.17;;;;;;;;;;5096431;28;20440;-69
2022/07/17 11:32:35;;;;;;;24.63;23.23;;;;;;;;;;5096535;28;20465;-68
2022/07/17 11:35:16;;;;;;;24.20;22.80;;;;;;;;;;5096473;28;20846;-68
2022/07/17 11:37:43;;;;;;;23.80;22.30;;;;;;;;;;5096669;28;20422;-68
2022/07/17 11:40:11;;;;;;;25.60;23.43;;;;;;;;;;5096290;28;20491;-68
2022/07/17 11:42:38;;;;;;;22.93;21.67;;;;;;;;;;5096523;28;20407;-69
2022/07/17 11:45:06;;;;;;;24.40;22.77;;;;;;;;;;5096454;28;20759;-68
2022/07/17 11:47:34;;;;;;;23.30;21.90;;;;;;;;;;5096000;28;20436;-68
2022/07/17 11:50:21;;;;;;;23.70;22.30;;;;;;;;;;5096276;28;20439;-69
2022/07/17 11:52:49;;;;;;;24.03;22.53;;;;;;;;;;5096214;28;20479;-68
2022/07/17 11:55:16;;;;;;;23.77;22.40;;;;;;;;;;5095916;28;20944;-69
2022/07/17 11:57:45;;;;;;;24.30;22.40;;;;;;;;;;5096156;28;20428;-68
2022/07/17 12:00:14;;;;;;;22.90;21.40;;;;;;;;;;5095969;28;20432;-68
2022/07/17 12:02:41;;;;;;;22.40;20.90;;;;;;;;;;5095763;28;20410;-68
2022/07/17 12:05:09;;;;;;;24.23;22.73;;;;;;;;;;5095961;28;20410;-68
2022/07/17 12:07:47;;;;;;;22.70;21.40;;;;;;;;;;5095694;28;20912;-68
2022/07/17 12:10:16;;;;;;;23.30;21.70;;;;;;;;;;5095558;28;20411;-68
2022/07/17 12:12:53;;;;;;;24.10;22.80;;;;;;;;;;5095670;28;20459;-68
2022/07/17 12:15:21;;;;;;;23.73;22.13;;;;;;;;;;5095044;28;20447;-68
2022/07/17 12:17:49;;;;;;;22.77;21.30;;;;;;;;;;5095725;28;20472;-69
2022/07/17 12:20:16;;;;;;;22.57;21.27;;;;;;;;;;5095385;28;20967;-68
2022/07/17 12:22:45;;;;;;;23.07;21.67;;;;;;;;;;5095914;28;20415;-68
2022/07/17 12:25:22;;;;;;;22.53;21.13;;;;;;;;;;5095630;28;20486;-68
2022/07/17 12:27:50;;;;;;;22.00;20.57;;;;;;;;;;5095338;28;20439;-69
2022/07/17 12:30:17;;;;;;;22.77;21.27;;;;;;;;;;5095572;28;20436;-69
2022/07/17 12:32:45;;;;;;;22.93;21.63;;;;;;;;;;5095127;28;20983;-69
2022/07/17 12:35:12;;;;;;;23.70;22.40;;;;;;;;;;5095150;28;20415;-68
2022/07/17 12:37:40;;;;;;;22.83;21.53;;;;;;;;;;5095457;28;20418;-69
2022/07/17 12:40:08;;;;;;;23.73;22.43;;;;;;;;;;5095106;28;20465;-68
2022/07/17 12:42:37;;;;;;;23.47;21.90;;;;;;;;;;5095291;28;20467;-68
2022/07/17 12:45:05;;;;;;;23.17;21.70;;;;;;;;;;5095450;28;20417;-69
2022/07/17 12:47:32;;;;;;;22.60;21.30;;;;;;;;;;5095176;28;20764;-68
2022/07/17 12:49:59;;;;;;;22.57;21.13;;;;;;;;;;5095186;28;20903;-69
2022/07/17 12:52:27;;;;;;;22.27;20.97;;;;;;;;;;5094983;28;20462;-68
2022/07/17 12:54:54;;;;;;;23.10;21.60;;;;;;;;;;5094728;28;20437;-69
2022/07/17 12:57:21;;;;;;;22.10;20.63;;;;;;;;;;5095033;28;20939;-69
2022/07/17 12:59:50;;;;;;;23.43;22.03;;;;;;;;;;5094997;28;20408;-68
2022/07/17 13:02:17;;;;;;;23.57;21.80;;;;;;;;;;5094991;28;20433;-68
2022/07/17 13:04:45;;;;;;;23.27;21.97;;;;;;;;;;5093905;28;20419;-69
2022/07/17 13:07:12;;;;;;;22.40;20.90;;;;;;;;;;5094798;28;20415;-68
2022/07/17 13:09:40;;;;;;;22.40;21.10;;;;;;;;;;5094484;28;20407;-68
2022/07/17 13:12:07;;;;;;;23.13;21.70;;;;;;;;;;5094693;28;20518;-67
2022/07/17 13:14:35;;;;;;;23.17;21.60;;;;;;;;;;5095000;28;20419;-69
2022/07/17 13:17:04;;;;;;;22.40;21.10;;;;;;;;;;5094394;28;20441;-68
2022/07/17 13:19:31;;;;;;;22.47;21.17;;;;;;;;;;5094533;28;20441;-69
2022/07/17 13:21:58;;;;;;;22.20;21.00;;;;;;;;;;5094271;28;20915;-68
2022/07/17 13:24:25;;;;;;;21.43;20.23;;;;;;;;;;5094185;28;20429;-69
2022/07/17 13:26:53;;;;;;;22.77;21.37;;;;;;;;;;5094022;28;20490;-68
2022/07/17 13:29:21;;;;;;;22.50;21.20;;;;;;;;;;5094073;28;20885;-68
2022/07/17 13:31:48;;;;;;;22.87;21.47;;;;;;;;;;5093873;28;20527;-69
2022/07/17 13:34:18;;;;;;;23.47;21.93;;;;;;;;;;5093989;28;20407;-68
2022/07/17 13:36:45;;;;;;;22.67;21.33;;;;;;;;;;5093968;28;20860;-68
2022/07/17 13:39:12;;;;;;;22.53;21.13;;;;;;;;;;5094008;28;20485;-70
2022/07/17 13:41:40;;;;;;;23.20;21.80;;;;;;;;;;5094048;28;20408;-69
2022/07/17 13:44:08;;;;;;;23.77;22.37;;;;;;;;;;5093954;28;20949;-69
2022/07/17 13:46:36;;;;;;;23.37;21.87;;;;;;;;;;5094290;28;20426;-69
2022/07/17 13:49:03;;;;;;;23.63;22.13;;;;;;;;;;5093775;28;20429;-69
2022/07/17 13:51:32;;;;;;;23.63;22.00;;;;;;;;;;5093739;28;20429;-69
2022/07/17 13:53:59;;;;;;;24.00;22.60;;;;;;;;;;5093974;28;20459;-69
2022/07/17 13:56:27;;;;;;;23.80;22.40;;;;;;;;;;5093907;28;20444;-69
2022/07/17 13:58:54;;;;;;;22.77;21.47;;;;;;;;;;5093656;28;20412;-69
2022/07/17 14:01:22;;;;;;;22.60;21.30;;;;;;;;;;5093743;28;20436;-69
2022/07/17 14:03:49;;;;;;;23.10;21.60;;;;;;;;;;5093537;28;20444;-69
2022/07/17 14:06:17;;;;;;;23.63;22.30;;;;;;;;;;5093755;28;20430;-69
2022/07/17 14:08:46;;;;;;;24.00;22.50;;;;;;;;;;5093371;28;20988;-68
2022/07/17 14:11:13;;;;;;;23.27;21.87;;;;;;;;;;5093320;28;20400;-69
2022/07/17 14:13:41;;;;;;;22.83;21.43;;;;;;;;;;5093568;28;20956;-69
2022/07/17 14:16:09;;;;;;;23.60;22.20;;;;;;;;;;5093741;28;20437;-69
2022/07/17 14:18:57;;;;;;;23.10;21.70;;;;;;;;;;5093076;28;20461;-70
2022/07/17 14:21:23;;;;;;;23.03;21.70;;;;;;;;;;5092923;28;20471;-69
2022/07/17 14:23:52;;;;;;;23.80;22.40;;;;;;;;;;5093937;28;20448;-69